createdAt,value
2018-06-05T00:01:46.604Z,16.00
2018-06-05T00:04:14.649Z,15.90
2018-06-05T00:06:42.659Z,15.80
2018-06-05T00:09:10.678Z,15.80
2018-06-05T00:11:38.681Z,15.70
2018-06-05T00:14:06.724Z,15.60
2018-06-05T00:16:34.741Z,15.60
2018-06-05T00:19:02.749Z,15.50
2018-06-05T00:21:30.789Z,15.40
2018-06-05T00:23:58.824Z,15.40
2018-06-05T00:26:26.881Z,15.40
2018-06-05T00:28:54.963Z,15.40
2018-06-05T00:31:22.989Z,15.30
2018-06-05T00:33:51.036Z,15.30
2018-06-05T00:36:19.084Z,15.20
2018-06-05T00:38:47.128Z,15.10
2018-06-05T00:41:15.139Z,15.10
2018-06-05T00:43:43.159Z,15.00
2018-06-05T00:46:11.197Z,15.00
2018-06-05T00:48:39.211Z,15.00
2018-06-05T00:51:18.835Z,14.90
2018-06-05T00:53:46.874Z,14.90
2018-06-05T00:56:14.904Z,14.90
2018-06-05T00:58:42.945Z,14.80
2018-06-05T01:01:10.980Z,14.80
2018-06-05T01:03:39.004Z,14.80
2018-06-05T01:06:07.033Z,14.70
2018-06-05T01:08:35.131Z,14.80
2018-06-05T01:11:03.155Z,14.80
2018-06-05T01:13:31.184Z,14.70
2018-06-05T01:15:59.213Z,14.70
2018-06-05T01:18:27.263Z,14.70
2018-06-05T01:20:55.382Z,14.70
2018-06-05T01:23:23.391Z,14.70
2018-06-05T01:25:51.521Z,14.70
2018-06-05T01:28:19.535Z,14.70
2018-06-05T01:30:47.556Z,14.70
2018-06-05T01:33:15.572Z,14.70
2018-06-05T01:35:43.643Z,14.70
2018-06-05T01:38:11.841Z,14.70
2018-06-05T01:40:39.872Z,14.70
2018-06-05T01:43:07.883Z,14.70
2018-06-05T01:45:35.922Z,14.70
2018-06-05T01:48:03.944Z,14.70
2018-06-05T01:50:31.962Z,14.80
2018-06-05T01:52:59.976Z,14.80
2018-06-05T01:55:28.020Z,14.90
2018-06-05T01:57:56.049Z,14.90
2018-06-05T02:00:24.048Z,14.90
2018-06-05T02:02:52.047Z,14.90
2018-06-05T02:05:20.081Z,14.90
2018-06-05T02:07:48.107Z,14.90
2018-06-05T02:10:16.124Z,15.00
2018-06-05T02:12:44.172Z,15.00
2018-06-05T02:15:12.188Z,15.00
2018-06-05T02:17:40.234Z,15.00
2018-06-05T02:20:08.248Z,15.00
2018-06-05T02:22:36.307Z,15.00
2018-06-05T02:25:04.365Z,15.00
2018-06-05T02:27:32.416Z,15.00
2018-06-05T02:30:00.439Z,15.00
2018-06-05T02:32:28.517Z,15.10
2018-06-05T02:34:56.577Z,15.00
2018-06-05T02:37:24.612Z,15.00
2018-06-05T02:39:52.630Z,15.10
2018-06-05T02:42:20.652Z,15.10
2018-06-05T02:44:48.712Z,15.10
2018-06-05T02:47:16.772Z,15.00
2018-06-05T02:49:44.804Z,15.00
2018-06-05T02:52:12.849Z,15.00
2018-06-05T02:54:40.921Z,15.00
2018-06-05T02:57:08.960Z,15.00
2018-06-05T02:59:36.991Z,15.10
2018-06-05T03:02:05.032Z,15.10
2018-06-05T03:04:33.085Z,15.00
2018-06-05T03:07:01.116Z,15.10
2018-06-05T03:09:29.201Z,15.10
2018-06-05T03:11:57.280Z,15.10
2018-06-05T03:14:25.341Z,15.10
2018-06-05T03:16:53.382Z,15.10
2018-06-05T03:19:21.413Z,15.00
2018-06-05T03:21:49.448Z,15.00
2018-06-05T03:24:17.487Z,15.00
2018-06-05T03:26:48.635Z,15.00
2018-06-05T03:29:16.643Z,15.00
2018-06-05T03:31:44.727Z,15.10
2018-06-05T03:34:12.738Z,15.10
2018-06-05T03:36:40.764Z,15.20
2018-06-05T03:39:08.788Z,15.20
2018-06-05T03:41:36.844Z,15.20
2018-06-05T03:44:04.862Z,15.20
2018-06-05T03:46:32.908Z,15.10
2018-06-05T03:49:01.028Z,15.10
2018-06-05T03:53:56.882Z,15.00
2018-06-05T03:56:24.961Z,15.10
2018-06-05T03:58:52.956Z,15.10
2018-06-05T04:01:20.977Z,15.10
2018-06-05T04:03:49.022Z,15.10
2018-06-05T04:06:17.056Z,15.20
2018-06-05T04:08:45.094Z,15.20
2018-06-05T04:11:13.154Z,15.10
2018-06-05T04:13:41.263Z,15.00
2018-06-05T04:16:09.339Z,15.10
2018-06-05T04:18:37.328Z,15.10
2018-06-05T04:21:05.415Z,15.00
2018-06-05T04:23:33.456Z,15.00
2018-06-05T04:26:01.515Z,15.10
2018-06-05T04:28:29.540Z,15.20
2018-06-05T04:33:25.611Z,15.30
2018-06-05T04:35:53.633Z,15.30
2018-06-05T04:38:21.670Z,15.30
2018-06-05T04:40:49.753Z,15.10
2018-06-05T04:43:17.912Z,15.10
2018-06-05T04:45:45.939Z,15.20
2018-06-05T04:48:14.016Z,15.20
2018-06-05T04:50:42.080Z,15.40
2018-06-05T04:53:10.141Z,15.50
2018-06-05T04:55:38.212Z,15.50
2018-06-05T04:58:06.286Z,15.30
2018-06-05T05:00:34.408Z,15.30
2018-06-05T05:03:02.853Z,15.40
2018-06-05T05:05:30.933Z,15.50
2018-06-05T05:07:59.003Z,15.50
2018-06-05T05:10:27.065Z,15.60
2018-06-05T05:12:55.150Z,15.60
2018-06-05T05:15:23.204Z,15.60
2018-06-05T05:17:51.269Z,15.70
2018-06-05T05:20:19.388Z,15.70
2018-06-05T05:22:47.479Z,15.80
2018-06-05T05:25:15.589Z,15.80
2018-06-05T05:27:43.636Z,15.70
2018-06-05T05:30:11.655Z,15.70
2018-06-05T05:32:39.767Z,15.80
2018-06-05T05:35:07.908Z,15.80
2018-06-05T05:37:36.024Z,15.80
2018-06-05T05:40:04.273Z,15.70
2018-06-05T05:42:32.435Z,15.60
2018-06-05T05:45:00.618Z,15.60
2018-06-05T05:47:28.674Z,15.60
2018-06-05T05:49:56.740Z,15.70
2018-06-05T05:52:24.812Z,15.80
2018-06-05T05:54:53.069Z,16.00
2018-06-05T05:57:21.260Z,16.00
2018-06-05T05:59:49.340Z,16.00
2018-06-05T06:02:17.399Z,16.10
2018-06-05T06:04:45.449Z,16.00
2018-06-05T06:07:13.541Z,15.90
2018-06-05T06:09:41.588Z,15.90
2018-06-05T06:14:37.609Z,16.20
2018-06-05T06:17:05.723Z,16.40
2018-06-05T06:19:33.895Z,16.60
2018-06-05T06:22:02.092Z,16.70
2018-06-05T06:24:30.239Z,16.60
2018-06-05T06:26:58.420Z,16.70
2018-06-05T06:29:26.421Z,16.80
2018-06-05T06:31:54.452Z,16.60
2018-06-05T06:34:22.631Z,16.60
2018-06-05T06:36:50.697Z,16.60
2018-06-05T06:39:18.773Z,16.70
2018-06-05T06:41:46.846Z,16.80
2018-06-05T06:44:14.964Z,16.90
2018-06-05T06:46:43.112Z,16.70
2018-06-05T06:49:11.192Z,16.50
2018-06-05T06:51:39.385Z,16.50
2018-06-05T06:54:07.414Z,16.40
2018-06-05T06:56:35.476Z,16.40
2018-06-05T06:59:03.587Z,16.50
2018-06-05T07:01:31.628Z,16.70
2018-06-05T07:03:59.825Z,16.60
2018-06-05T07:06:27.893Z,16.60
2018-06-05T07:08:55.988Z,16.50
2018-06-05T07:11:24.039Z,16.40
2018-06-05T07:13:52.059Z,16.20
2018-06-05T07:16:20.405Z,16.30
2018-06-05T07:18:48.473Z,16.30
2018-06-05T07:21:16.509Z,16.30
2018-06-05T07:23:44.588Z,16.40
2018-06-05T07:26:12.694Z,16.40
2018-06-05T07:28:40.800Z,16.40
2018-06-05T07:31:08.921Z,16.60
2018-06-05T07:33:36.999Z,16.70
2018-06-05T07:36:05.323Z,16.70
2018-06-05T07:38:33.600Z,16.70
2018-06-05T07:41:01.774Z,16.70
2018-06-05T07:43:29.811Z,16.80
2018-06-05T07:45:57.918Z,16.90
2018-06-05T07:48:25.984Z,17.00
2018-06-05T07:50:54.066Z,17.10
2018-06-05T07:53:22.128Z,17.20
2018-06-05T07:55:50.202Z,17.20
2018-06-05T07:58:18.376Z,17.10
2018-06-05T08:00:46.396Z,17.20
2018-06-05T08:03:14.468Z,17.10
2018-06-05T08:05:42.517Z,17.10
2018-06-05T08:08:10.655Z,17.20
2018-06-05T08:10:38.748Z,17.20
2018-06-05T08:13:06.857Z,17.10
2018-06-05T08:15:34.900Z,17.00
2018-06-05T08:18:03.022Z,16.90
2018-06-05T08:20:32.134Z,17.10
2018-06-05T08:23:00.176Z,17.20
2018-06-05T08:25:28.215Z,17.50
2018-06-05T08:27:56.300Z,17.50
2018-06-05T08:30:24.341Z,17.70
2018-06-05T08:32:52.432Z,17.80
2018-06-05T08:35:20.560Z,17.80
2018-06-05T08:37:48.643Z,17.70
2018-06-05T08:40:16.733Z,17.80
2018-06-05T08:42:44.872Z,17.90
2018-06-05T08:45:13.102Z,17.90
2018-06-05T08:47:41.105Z,17.90
2018-06-05T08:50:09.140Z,18.10
2018-06-05T08:52:37.225Z,18.40
2018-06-05T08:55:05.437Z,18.50
2018-06-05T08:57:33.512Z,18.60
2018-06-05T09:00:01.553Z,18.70
2018-06-05T09:02:29.624Z,18.70
2018-06-05T09:04:57.673Z,18.50
2018-06-05T09:07:25.708Z,18.40
2018-06-05T09:09:53.803Z,18.40
2018-06-05T09:12:21.862Z,18.50
2018-06-05T09:14:49.932Z,18.70
2018-06-05T09:17:18.206Z,18.70
2018-06-05T09:19:46.546Z,18.70
2018-06-05T09:22:14.612Z,18.70
2018-06-05T09:24:42.698Z,18.60
2018-06-05T09:27:10.724Z,18.60
2018-06-05T09:29:38.858Z,18.50
2018-06-05T09:32:07.138Z,18.50
2018-06-05T09:34:35.287Z,18.60
2018-06-05T09:37:03.320Z,18.70
2018-06-05T09:39:31.435Z,18.90
2018-06-05T09:41:59.472Z,19.00
2018-06-05T09:44:27.666Z,18.90
2018-06-05T09:46:55.730Z,19.00
2018-06-05T09:49:23.804Z,19.10
2018-06-05T09:51:52.005Z,19.20
2018-06-05T09:54:20.085Z,19.20
2018-06-05T09:56:48.148Z,19.30
2018-06-05T09:59:16.319Z,19.50
2018-06-05T10:01:44.340Z,19.60
2018-06-05T10:04:12.433Z,19.80
2018-06-05T10:06:40.485Z,19.90
2018-06-05T10:09:08.614Z,19.90
2018-06-05T10:11:36.843Z,20.00
2018-06-05T10:14:05.095Z,20.20
2018-06-05T10:19:07.669Z,20.40
2018-06-05T10:21:35.790Z,20.40
2018-06-05T10:24:03.872Z,20.40
2018-06-05T10:26:32.033Z,20.60
2018-06-05T10:29:00.106Z,20.70
2018-06-05T10:31:28.151Z,20.70
2018-06-05T10:33:56.245Z,20.70
2018-06-05T10:36:24.276Z,20.60
2018-06-05T10:38:52.331Z,20.40
2018-06-05T10:41:20.369Z,20.30
2018-06-05T10:43:48.431Z,20.30
2018-06-05T10:46:16.450Z,20.50
2018-06-05T10:48:44.575Z,20.60
2018-06-05T10:51:12.627Z,20.50
2018-06-05T10:53:40.720Z,20.50
2018-06-05T10:56:08.738Z,20.50
2018-06-05T10:58:36.773Z,20.50
2018-06-05T11:01:04.840Z,20.50
2018-06-05T11:03:33.104Z,20.70
2018-06-05T11:06:01.188Z,20.70
2018-06-05T11:08:29.216Z,20.60
2018-06-05T11:10:57.255Z,20.70
2018-06-05T11:13:25.485Z,20.90
2018-06-05T11:15:53.576Z,21.20
2018-06-05T11:18:21.701Z,21.40
2018-06-05T11:20:49.800Z,21.60
2018-06-05T11:23:17.946Z,21.60
2018-06-05T11:25:46.021Z,21.70
2018-06-05T11:28:14.087Z,21.80
2018-06-05T11:30:42.215Z,21.70
2018-06-05T11:33:10.352Z,21.70
2018-06-05T11:35:38.410Z,21.80
2018-06-05T11:38:06.460Z,21.90
2018-06-05T11:40:34.539Z,22.00
2018-06-05T11:43:02.620Z,22.20
2018-06-05T11:45:30.672Z,22.00
2018-06-05T11:50:26.629Z,21.90
2018-06-05T11:52:54.685Z,21.90
2018-06-05T11:55:22.754Z,22.00
2018-06-05T11:57:50.830Z,22.10
2018-06-05T12:00:18.884Z,22.20
2018-06-05T12:02:46.965Z,22.30
2018-06-05T12:05:15.085Z,22.40
2018-06-05T12:07:43.168Z,22.50
2018-06-05T12:10:11.227Z,22.40
2018-06-05T12:12:39.252Z,22.30
2018-06-05T12:15:07.332Z,22.10
2018-06-05T12:17:35.504Z,22.10
2018-06-05T12:20:03.601Z,22.00
2018-06-05T12:22:31.694Z,22.00
2018-06-05T12:24:59.805Z,22.10
2018-06-05T12:27:31.808Z,22.40
2018-06-05T12:29:59.921Z,22.50
2018-06-05T12:32:27.987Z,22.50
2018-06-05T12:34:56.078Z,22.60
2018-06-05T12:37:24.150Z,22.70
2018-06-05T12:39:52.176Z,22.70
2018-06-05T12:42:20.280Z,22.80
2018-06-05T12:44:48.380Z,22.90
2018-06-05T12:47:16.468Z,22.80
2018-06-05T12:49:44.543Z,22.90
2018-06-05T12:52:12.626Z,23.10
2018-06-05T12:54:40.706Z,23.30
2018-06-05T12:57:08.751Z,23.40
2018-06-05T12:59:36.863Z,23.50
2018-06-05T13:02:05.117Z,23.70
2018-06-05T13:04:33.270Z,23.80
2018-06-05T13:07:01.376Z,23.90
2018-06-05T13:09:29.423Z,24.00
2018-06-05T13:11:57.510Z,24.00
2018-06-05T13:14:25.560Z,24.10
2018-06-05T13:16:53.650Z,24.00
2018-06-05T13:19:21.698Z,24.10
2018-06-05T13:21:49.754Z,24.10
2018-06-05T13:24:17.845Z,24.00
2018-06-05T13:26:45.887Z,24.00
2018-06-05T13:29:13.943Z,24.10
2018-06-05T13:31:41.986Z,24.40
2018-06-05T13:34:10.158Z,24.50
2018-06-05T13:36:38.247Z,24.60
2018-06-05T13:39:08.072Z,24.70
2018-06-05T13:41:36.145Z,24.80
2018-06-05T13:44:04.490Z,24.90
2018-06-05T13:46:32.737Z,25.10
2018-06-05T13:49:00.818Z,25.20
2018-06-05T13:51:28.869Z,25.40
2018-06-05T13:53:57.017Z,25.60
2018-06-05T13:56:25.178Z,25.80
2018-06-05T13:58:53.257Z,26.10
2018-06-05T14:01:21.344Z,26.30
2018-06-05T14:03:49.369Z,26.30
2018-06-05T14:06:17.396Z,26.40
2018-06-05T14:08:45.455Z,26.40
2018-06-05T14:11:13.489Z,26.30
2018-06-05T14:13:41.614Z,26.40
2018-06-05T14:16:09.703Z,26.40
2018-06-05T14:18:37.728Z,26.50
2018-06-05T14:21:05.808Z,26.60
2018-06-05T14:23:33.993Z,26.60
2018-06-05T14:26:02.017Z,26.60
2018-06-05T14:28:36.892Z,26.50
2018-06-05T14:31:05.067Z,26.30
2018-06-05T14:33:33.112Z,26.40
2018-06-05T14:38:29.057Z,26.40
2018-06-05T14:40:57.149Z,26.40
2018-06-05T14:43:25.180Z,26.40
2018-06-05T14:48:21.207Z,26.40
2018-06-05T14:50:49.229Z,26.60
2018-06-05T14:53:17.267Z,26.80
2018-06-05T14:55:45.321Z,27.10
2018-06-05T14:58:46.003Z,27.40
2018-06-05T15:01:14.036Z,27.40
2018-06-05T15:03:42.128Z,27.40
2018-06-05T15:06:10.177Z,27.70
2018-06-05T15:08:38.241Z,28.20
2018-06-05T15:11:06.360Z,28.70
2018-06-05T15:13:34.388Z,29.10
2018-06-05T15:16:02.452Z,29.40
2018-06-05T15:18:30.528Z,29.70
2018-06-05T15:20:58.615Z,30.10
2018-06-05T15:23:26.712Z,29.90
2018-06-05T15:25:54.749Z,29.50
2018-06-05T15:28:22.792Z,28.70
2018-06-05T15:30:50.875Z,28.20
2018-06-05T15:33:19.004Z,27.60
2018-06-05T15:35:47.100Z,27.40
2018-06-05T15:38:15.179Z,27.50
2018-06-05T15:40:43.267Z,27.40
2018-06-05T15:43:11.381Z,27.70
2018-06-05T15:45:39.433Z,28.80
2018-06-05T15:48:07.489Z,30.80
2018-06-05T15:50:35.679Z,32.60
2018-06-05T15:53:03.760Z,33.70
2018-06-05T15:55:31.837Z,34.30
2018-06-05T15:57:59.996Z,35.10
2018-06-05T16:00:28.082Z,34.90
2018-06-05T16:02:56.223Z,33.40
2018-06-05T16:05:24.398Z,32.30
2018-06-05T16:07:52.607Z,31.30
2018-06-05T16:10:20.761Z,30.60
2018-06-05T16:12:48.820Z,29.90
2018-06-05T16:17:44.877Z,29.00
2018-06-05T16:20:12.985Z,28.90
2018-06-05T16:22:41.116Z,29.80
2018-06-05T16:25:09.203Z,31.10
2018-06-05T16:27:37.226Z,31.40
2018-06-05T16:30:05.861Z,31.00
2018-06-05T16:32:33.954Z,30.60
2018-06-05T16:35:02.117Z,30.40
2018-06-05T16:37:30.205Z,30.20
2018-06-05T16:39:58.264Z,30.10
2018-06-05T16:42:26.356Z,30.70
2018-06-05T16:44:54.596Z,31.90
2018-06-05T16:47:22.736Z,32.40
2018-06-05T16:49:50.812Z,32.80
2018-06-05T16:52:18.872Z,33.70
2018-06-05T16:54:47.020Z,34.30
2018-06-05T16:57:15.117Z,35.30
2018-06-05T16:59:43.200Z,35.70
2018-06-05T17:02:11.253Z,36.20
2018-06-05T17:07:07.158Z,35.10
2018-06-05T17:09:35.249Z,33.80
2018-06-05T17:12:03.372Z,32.70
2018-06-05T17:14:31.512Z,32.00
2018-06-05T17:16:59.588Z,31.20
2018-06-05T17:19:27.793Z,30.60
2018-06-05T17:21:55.832Z,29.90
2018-06-05T17:24:23.888Z,29.80
2018-06-05T17:29:19.822Z,31.20
2018-06-05T17:31:47.887Z,32.00
2018-06-05T17:34:15.931Z,32.90
2018-06-05T17:36:43.988Z,33.40
2018-06-05T17:39:12.076Z,33.30
2018-06-05T17:41:40.191Z,32.90
2018-06-05T17:44:08.241Z,32.20
2018-06-05T17:46:36.330Z,31.20
2018-06-05T17:49:04.376Z,30.10
2018-06-05T17:51:32.394Z,29.40
2018-06-05T17:54:00.638Z,28.80
2018-06-05T17:56:28.705Z,28.10
2018-06-05T17:58:56.847Z,27.60
2018-06-05T18:01:24.881Z,27.10
2018-06-05T18:03:52.986Z,26.60
2018-06-05T18:06:21.071Z,26.20
2018-06-05T18:08:49.152Z,25.90
2018-06-05T18:11:17.225Z,25.80
2018-06-05T18:16:13.306Z,25.50
2018-06-05T18:18:41.377Z,25.50
2018-06-05T18:21:09.537Z,25.30
2018-06-05T18:23:37.600Z,25.20
2018-06-05T18:26:05.695Z,25.10
2018-06-05T18:28:33.789Z,25.10
2018-06-05T18:31:01.912Z,25.00
2018-06-05T18:33:30.014Z,24.90
2018-06-05T18:35:58.084Z,24.90
2018-06-05T18:38:26.128Z,24.80
2018-06-05T18:40:54.201Z,24.70
2018-06-05T18:43:22.253Z,24.70
2018-06-05T18:45:50.294Z,24.70
2018-06-05T18:48:18.338Z,24.70
2018-06-05T18:50:46.522Z,24.50
2018-06-05T18:53:14.585Z,24.40
2018-06-05T18:55:42.660Z,24.20
2018-06-05T18:58:10.741Z,24.10
2018-06-05T19:00:38.875Z,24.00
2018-06-05T19:03:06.868Z,23.90
2018-06-05T19:05:34.931Z,23.80
2018-06-05T19:08:03.007Z,23.80
2018-06-05T19:10:31.065Z,23.80
2018-06-05T19:12:59.120Z,23.70
2018-06-05T19:17:55.050Z,23.50
2018-06-05T19:20:23.139Z,23.30
2018-06-05T19:22:51.225Z,23.20
2018-06-05T19:25:19.283Z,23.20
2018-06-05T19:27:47.357Z,23.00
2018-06-05T19:30:15.536Z,22.90
2018-06-05T19:32:44.437Z,22.80
2018-06-05T19:35:12.623Z,22.70
2018-06-05T19:37:41.542Z,22.60
2018-06-05T19:40:09.665Z,22.40
2018-06-05T19:42:37.681Z,22.30
2018-06-05T19:45:05.720Z,22.10
2018-06-05T19:47:33.776Z,22.00
2018-06-05T19:50:01.889Z,21.80
2018-06-05T19:52:29.973Z,21.70
2018-06-05T19:54:57.992Z,21.60
2018-06-05T19:57:26.069Z,21.50
2018-06-05T19:59:54.103Z,21.40
2018-06-05T20:02:22.143Z,21.30
2018-06-05T20:04:50.192Z,21.10
2018-06-05T20:07:18.235Z,21.00
2018-06-05T20:09:46.236Z,20.90
2018-06-05T20:12:14.293Z,20.90
2018-06-05T20:14:42.381Z,20.90
2018-06-05T20:17:10.430Z,20.90
2018-06-05T20:19:38.467Z,20.80
2018-06-05T20:24:34.404Z,20.70
2018-06-05T20:27:02.560Z,20.70
2018-06-05T20:29:30.609Z,20.60
2018-06-05T20:31:58.658Z,20.60
2018-06-05T20:36:54.798Z,20.50
2018-06-05T20:39:22.920Z,20.40
2018-06-05T20:41:51.139Z,20.40
2018-06-05T20:44:19.365Z,20.30
2018-06-05T20:46:47.552Z,20.30
2018-06-05T20:49:15.727Z,20.20
2018-06-05T20:51:44.130Z,20.20
2018-06-05T20:54:12.349Z,20.10
2018-06-05T20:56:40.567Z,20.10
2018-06-05T20:59:08.830Z,20.10
2018-06-05T21:01:37.010Z,20.10
2018-06-05T21:04:05.688Z,20.10
2018-06-05T21:06:34.658Z,20.10
2018-06-05T21:09:02.758Z,20.10
2018-06-05T21:11:30.888Z,20.00
2018-06-05T21:13:58.913Z,20.00
2018-06-05T21:16:27.000Z,20.00
2018-06-05T21:18:55.655Z,20.00
2018-06-05T21:21:23.852Z,20.00
2018-06-05T21:23:51.974Z,19.90
2018-06-05T21:26:20.159Z,19.80
2018-06-05T21:28:48.305Z,19.80
2018-06-05T21:33:44.520Z,19.80
2018-06-05T21:36:12.762Z,19.80
2018-06-05T21:38:40.936Z,19.70
2018-06-05T21:41:09.109Z,19.70
2018-06-05T21:43:37.180Z,19.60
2018-06-05T21:46:05.281Z,19.60
2018-06-05T21:48:33.323Z,19.60
2018-06-05T21:51:01.393Z,19.50
2018-06-05T21:53:29.427Z,19.50
2018-06-05T21:55:57.486Z,19.50
2018-06-05T22:00:53.388Z,19.50
2018-06-05T22:03:21.433Z,19.40
2018-06-05T22:05:49.709Z,19.40
2018-06-05T22:08:17.801Z,19.40
2018-06-05T22:10:45.885Z,19.30
2018-06-05T22:13:13.978Z,19.30
2018-06-05T22:15:42.108Z,19.30
2018-06-05T22:18:10.236Z,19.20
2018-06-05T22:20:38.300Z,19.10
2018-06-05T22:23:06.405Z,19.10
2018-06-05T22:25:34.492Z,19.10
2018-06-05T22:28:02.709Z,19.10
2018-06-05T22:30:30.936Z,19.00
2018-06-05T22:32:59.105Z,19.00
2018-06-05T22:35:27.350Z,19.00
2018-06-05T22:37:55.506Z,18.90
2018-06-05T22:40:23.627Z,18.90
2018-06-05T22:42:51.811Z,18.90
2018-06-05T22:45:19.974Z,18.80
2018-06-05T22:47:48.124Z,18.80
2018-06-05T22:50:16.337Z,18.80
2018-06-05T22:52:44.478Z,18.80
2018-06-05T22:55:12.668Z,18.80
2018-06-05T22:57:40.696Z,18.70
2018-06-05T23:00:08.719Z,18.70
2018-06-05T23:02:36.778Z,18.70
2018-06-05T23:05:05.129Z,18.60
2018-06-05T23:07:33.166Z,18.60
2018-06-05T23:10:01.333Z,18.50
2018-06-05T23:12:29.434Z,18.50
2018-06-05T23:14:57.488Z,18.50
2018-06-05T23:17:25.524Z,18.50
2018-06-05T23:19:53.559Z,18.50
2018-06-05T23:22:21.623Z,18.50
2018-06-05T23:24:49.721Z,18.50
2018-06-05T23:27:17.857Z,18.40
2018-06-05T23:29:45.899Z,18.40
2018-06-05T23:32:13.970Z,18.40
2018-06-05T23:34:41.972Z,18.40
2018-06-05T23:37:10.025Z,18.40
2018-06-05T23:39:38.147Z,18.40
2018-06-05T23:42:06.180Z,18.40
2018-06-05T23:44:34.290Z,18.50
2018-06-05T23:47:02.308Z,18.40
2018-06-05T23:49:30.354Z,18.50
2018-06-05T23:51:59.458Z,18.40
2018-06-05T23:54:27.677Z,18.40
2018-06-05T23:56:55.724Z,18.40
2018-06-05T23:59:23.744Z,18.30
